sensor_id;sensor_type;location;lat;lon;timestamp;P1;durP1;ratioP1;P2;durP2;ratioP2
59189;SDS011;50749;51.636;4.948;2022-12-18T00:01:14;21.50;;;10.52;;
59189;SDS011;50749;51.636;4.948;2022-12-18T00:03:44;24.33;;;10.95;;
59189;SDS011;50749;51.636;4.948;2022-12-18T00:06:11;23.15;;;10.90;;
59189;SDS011;50749;51.636;4.948;2022-12-18T00:08:37;18.63;;;10.77;;
59189;SDS011;50749;51.636;4.948;2022-12-18T00:11:04;21.05;;;11.02;;
59189;SDS011;50749;51.636;4.948;2022-12-18T00:13:31;20.02;;;10.95;;
59189;SDS011;50749;51.636;4.948;2022-12-18T00:16:01;21.83;;;11.00;;
59189;SDS011;50749;51.636;4.948;2022-12-18T00:18:32;21.38;;;11.10;;
59189;SDS011;50749;51.636;4.948;2022-12-18T00:21:01;23.35;;;11.02;;
59189;SDS011;50749;51.636;4.948;2022-12-18T00:23:29;21.35;;;11.13;;
59189;SDS011;50749;51.636;4.948;2022-12-18T00:26:02;22.40;;;11.27;;
59189;SDS011;50749;51.636;4.948;2022-12-18T00:28:35;22.90;;;10.60;;
59189;SDS011;50749;51.636;4.948;2022-12-18T00:31:01;21.10;;;10.88;;
59189;SDS011;50749;51.636;4.948;2022-12-18T00:33:28;21.17;;;10.45;;
59189;SDS011;50749;51.636;4.948;2022-12-18T00:35:54;19.42;;;10.68;;
59189;SDS011;50749;51.636;4.948;2022-12-18T00:38:25;20.63;;;11.18;;
59189;SDS011;50749;51.636;4.948;2022-12-18T00:40:51;19.52;;;10.30;;
59189;SDS011;50749;51.636;4.948;2022-12-18T00:43:17;22.10;;;11.25;;
59189;SDS011;50749;51.636;4.948;2022-12-18T00:45:43;19.92;;;10.32;;
59189;SDS011;50749;51.636;4.948;2022-12-18T00:48:09;20.83;;;10.27;;
59189;SDS011;50749;51.636;4.948;2022-12-18T00:50:35;17.85;;;9.95;;
59189;SDS011;50749;51.636;4.948;2022-12-18T00:53:01;19.90;;;10.15;;
59189;SDS011;50749;51.636;4.948;2022-12-18T00:55:27;21.15;;;10.82;;
59189;SDS011;50749;51.636;4.948;2022-12-18T00:57:53;19.38;;;10.57;;
59189;SDS011;50749;51.636;4.948;2022-12-18T01:00:18;20.05;;;11.13;;
59189;SDS011;50749;51.636;4.948;2022-12-18T01:02:45;20.50;;;10.32;;
59189;SDS011;50749;51.636;4.948;2022-12-18T01:05:12;19.65;;;9.73;;
59189;SDS011;50749;51.636;4.948;2022-12-18T01:07:41;21.70;;;9.77;;
59189;SDS011;50749;51.636;4.948;2022-12-18T01:10:07;22.25;;;10.55;;
59189;SDS011;50749;51.636;4.948;2022-12-18T01:12:35;18.48;;;10.10;;
59189;SDS011;50749;51.636;4.948;2022-12-18T01:15:01;24.40;;;10.13;;
59189;SDS011;50749;51.636;4.948;2022-12-18T01:17:28;20.38;;;10.73;;
59189;SDS011;50749;51.636;4.948;2022-12-18T01:19:54;18.98;;;9.60;;
59189;SDS011;50749;51.636;4.948;2022-12-18T01:22:20;18.92;;;10.70;;
59189;SDS011;50749;51.636;4.948;2022-12-18T01:24:45;20.08;;;10.10;;
59189;SDS011;50749;51.636;4.948;2022-12-18T01:27:12;19.40;;;9.93;;
59189;SDS011;50749;51.636;4.948;2022-12-18T01:29:37;18.45;;;10.25;;
59189;SDS011;50749;51.636;4.948;2022-12-18T01:32:03;18.50;;;10.02;;
59189;SDS011;50749;51.636;4.948;2022-12-18T01:34:29;19.67;;;9.52;;
59189;SDS011;50749;51.636;4.948;2022-12-18T01:36:55;20.33;;;10.32;;
59189;SDS011;50749;51.636;4.948;2022-12-18T01:39:22;18.58;;;9.93;;
59189;SDS011;50749;51.636;4.948;2022-12-18T01:41:48;20.70;;;10.10;;
59189;SDS011;50749;51.636;4.948;2022-12-18T01:50:01;18.95;;;9.48;;
59189;SDS011;50749;51.636;4.948;2022-12-18T01:52:52;21.83;;;9.05;;
59189;SDS011;50749;51.636;4.948;2022-12-18T01:55:22;16.60;;;9.40;;
59189;SDS011;50749;51.636;4.948;2022-12-18T01:57:55;17.52;;;9.63;;
59189;SDS011;50749;51.636;4.948;2022-12-18T02:00:23;18.33;;;9.82;;
59189;SDS011;50749;51.636;4.948;2022-12-18T02:02:49;16.63;;;9.43;;
59189;SDS011;50749;51.636;4.948;2022-12-18T02:05:19;17.77;;;9.48;;
59189;SDS011;50749;51.636;4.948;2022-12-18T02:08:11;17.88;;;9.07;;
59189;SDS011;50749;51.636;4.948;2022-12-18T02:10:57;19.02;;;9.85;;
59189;SDS011;50749;51.636;4.948;2022-12-18T02:18:53;13.25;;;8.25;;
59189;SDS011;50749;51.636;4.948;2022-12-18T02:21:29;17.00;;;8.43;;
59189;SDS011;50749;51.636;4.948;2022-12-18T02:27:07;16.65;;;8.43;;
59189;SDS011;50749;51.636;4.948;2022-12-18T02:29:41;15.38;;;8.90;;
59189;SDS011;50749;51.636;4.948;2022-12-18T02:32:10;14.48;;;8.63;;
59189;SDS011;50749;51.636;4.948;2022-12-18T02:34:41;13.52;;;8.32;;
59189;SDS011;50749;51.636;4.948;2022-12-18T02:37:10;15.38;;;8.25;;
59189;SDS011;50749;51.636;4.948;2022-12-18T02:39:40;18.25;;;8.70;;
59189;SDS011;50749;51.636;4.948;2022-12-18T02:42:09;15.82;;;8.15;;
59189;SDS011;50749;51.636;4.948;2022-12-18T02:44:43;15.15;;;8.20;;
59189;SDS011;50749;51.636;4.948;2022-12-18T02:47:11;15.10;;;8.77;;
59189;SDS011;50749;51.636;4.948;2022-12-18T02:49:41;12.75;;;7.70;;
59189;SDS011;50749;51.636;4.948;2022-12-18T02:57:40;15.40;;;7.85;;
59189;SDS011;50749;51.636;4.948;2022-12-18T03:00:16;13.68;;;7.38;;
59189;SDS011;50749;51.636;4.948;2022-12-18T03:02:48;13.23;;;8.13;;
59189;SDS011;50749;51.636;4.948;2022-12-18T03:05:22;11.93;;;7.18;;
59189;SDS011;50749;51.636;4.948;2022-12-18T03:10:38;14.52;;;8.20;;
59189;SDS011;50749;51.636;4.948;2022-12-18T03:13:14;11.73;;;7.30;;
59189;SDS011;50749;51.636;4.948;2022-12-18T03:15:48;13.02;;;8.18;;
59189;SDS011;50749;51.636;4.948;2022-12-18T03:18:21;13.80;;;7.53;;
59189;SDS011;50749;51.636;4.948;2022-12-18T03:20:55;12.88;;;7.28;;
59189;SDS011;50749;51.636;4.948;2022-12-18T03:23:27;14.48;;;7.40;;
59189;SDS011;50749;51.636;4.948;2022-12-18T03:25:59;11.32;;;7.22;;
59189;SDS011;50749;51.636;4.948;2022-12-18T03:28:30;13.65;;;7.80;;
59189;SDS011;50749;51.636;4.948;2022-12-18T03:31:01;13.68;;;8.38;;
59189;SDS011;50749;51.636;4.948;2022-12-18T03:33:31;10.73;;;6.10;;
59189;SDS011;50749;51.636;4.948;2022-12-18T03:36:03;11.45;;;6.85;;
59189;SDS011;50749;51.636;4.948;2022-12-18T03:38:29;11.77;;;7.10;;
59189;SDS011;50749;51.636;4.948;2022-12-18T03:43:39;12.63;;;7.43;;
59189;SDS011;50749;51.636;4.948;2022-12-18T03:46:24;12.55;;;7.43;;
59189;SDS011;50749;51.636;4.948;2022-12-18T03:49:32;12.13;;;6.37;;
59189;SDS011;50749;51.636;4.948;2022-12-18T03:52:09;12.50;;;7.40;;
59189;SDS011;50749;51.636;4.948;2022-12-18T03:54:39;12.77;;;6.95;;
59189;SDS011;50749;51.636;4.948;2022-12-18T03:57:09;14.40;;;7.65;;
59189;SDS011;50749;51.636;4.948;2022-12-18T03:59:39;11.63;;;6.13;;
59189;SDS011;50749;51.636;4.948;2022-12-18T04:02:07;11.95;;;6.32;;
59189;SDS011;50749;51.636;4.948;2022-12-18T04:04:34;12.52;;;7.25;;
59189;SDS011;50749;51.636;4.948;2022-12-18T04:07:03;13.15;;;6.72;;
59189;SDS011;50749;51.636;4.948;2022-12-18T04:09:30;11.10;;;6.57;;
59189;SDS011;50749;51.636;4.948;2022-12-18T04:11:58;11.77;;;7.28;;
59189;SDS011;50749;51.636;4.948;2022-12-18T04:14:24;10.32;;;6.47;;
59189;SDS011;50749;51.636;4.948;2022-12-18T04:16:50;11.60;;;6.90;;
59189;SDS011;50749;51.636;4.948;2022-12-18T04:19:15;9.95;;;6.65;;
59189;SDS011;50749;51.636;4.948;2022-12-18T04:21:42;10.98;;;6.47;;
59189;SDS011;50749;51.636;4.948;2022-12-18T04:24:07;11.77;;;6.38;;
59189;SDS011;50749;51.636;4.948;2022-12-18T04:26:34;10.52;;;5.70;;
59189;SDS011;50749;51.636;4.948;2022-12-18T04:28:59;9.38;;;6.30;;
59189;SDS011;50749;51.636;4.948;2022-12-18T04:31:26;11.10;;;6.40;;
59189;SDS011;50749;51.636;4.948;2022-12-18T04:33:51;11.27;;;6.63;;
59189;SDS011;50749;51.636;4.948;2022-12-18T04:36:18;10.85;;;6.80;;
59189;SDS011;50749;51.636;4.948;2022-12-18T04:38:43;10.88;;;6.45;;
59189;SDS011;50749;51.636;4.948;2022-12-18T04:41:09;9.95;;;6.13;;
59189;SDS011;50749;51.636;4.948;2022-12-18T04:43:35;9.45;;;6.22;;
59189;SDS011;50749;51.636;4.948;2022-12-18T04:46:05;11.52;;;6.30;;
59189;SDS011;50749;51.636;4.948;2022-12-18T04:48:32;11.07;;;6.65;;
59189;SDS011;50749;51.636;4.948;2022-12-18T04:50:59;12.38;;;6.22;;
59189;SDS011;50749;51.636;4.948;2022-12-18T04:53:25;12.43;;;6.15;;
59189;SDS011;50749;51.636;4.948;2022-12-18T04:56:01;9.18;;;5.90;;
59189;SDS011;50749;51.636;4.948;2022-12-18T04:58:28;10.50;;;6.22;;
59189;SDS011;50749;51.636;4.948;2022-12-18T05:00:54;10.40;;;6.05;;
59189;SDS011;50749;51.636;4.948;2022-12-18T05:03:20;9.00;;;5.78;;
59189;SDS011;50749;51.636;4.948;2022-12-18T05:05:49;9.45;;;5.28;;
59189;SDS011;50749;51.636;4.948;2022-12-18T05:08:16;9.75;;;5.55;;
59189;SDS011;50749;51.636;4.948;2022-12-18T05:10:43;9.52;;;5.70;;
59189;SDS011;50749;51.636;4.948;2022-12-18T05:13:08;9.40;;;5.35;;
59189;SDS011;50749;51.636;4.948;2022-12-18T05:15:35;8.18;;;5.47;;
59189;SDS011;50749;51.636;4.948;2022-12-18T05:18:00;11.05;;;6.03;;
59189;SDS011;50749;51.636;4.948;2022-12-18T05:20:27;10.80;;;5.50;;
59189;SDS011;50749;51.636;4.948;2022-12-18T05:22:53;9.00;;;5.50;;
59189;SDS011;50749;51.636;4.948;2022-12-18T05:25:20;8.15;;;5.07;;
59189;SDS011;50749;51.636;4.948;2022-12-18T05:27:47;7.95;;;5.18;;
59189;SDS011;50749;51.636;4.948;2022-12-18T05:30:14;8.35;;;4.85;;
59189;SDS011;50749;51.636;4.948;2022-12-18T05:32:40;9.93;;;4.85;;
59189;SDS011;50749;51.636;4.948;2022-12-18T05:35:07;9.48;;;5.43;;
59189;SDS011;50749;51.636;4.948;2022-12-18T05:37:34;8.48;;;5.07;;
59189;SDS011;50749;51.636;4.948;2022-12-18T05:40:00;9.50;;;5.82;;
59189;SDS011;50749;51.636;4.948;2022-12-18T05:42:27;10.65;;;5.45;;
59189;SDS011;50749;51.636;4.948;2022-12-18T05:44:53;7.85;;;4.90;;
59189;SDS011;50749;51.636;4.948;2022-12-18T05:47:18;10.10;;;4.82;;
59189;SDS011;50749;51.636;4.948;2022-12-18T05:49:44;7.70;;;5.03;;
59189;SDS011;50749;51.636;4.948;2022-12-18T05:52:11;7.43;;;4.97;;
59189;SDS011;50749;51.636;4.948;2022-12-18T05:54:37;8.10;;;4.88;;
59189;SDS011;50749;51.636;4.948;2022-12-18T05:57:04;7.53;;;4.72;;
59189;SDS011;50749;51.636;4.948;2022-12-18T05:59:30;8.50;;;5.18;;
59189;SDS011;50749;51.636;4.948;2022-12-18T06:01:55;8.20;;;5.10;;
59189;SDS011;50749;51.636;4.948;2022-12-18T06:04:22;7.78;;;4.82;;
59189;SDS011;50749;51.636;4.948;2022-12-18T06:06:48;9.27;;;5.18;;
59189;SDS011;50749;51.636;4.948;2022-12-18T06:09:14;7.85;;;4.85;;
59189;SDS011;50749;51.636;4.948;2022-12-18T06:11:40;8.50;;;4.85;;
59189;SDS011;50749;51.636;4.948;2022-12-18T06:14:06;6.97;;;4.43;;
59189;SDS011;50749;51.636;4.948;2022-12-18T06:16:32;6.25;;;4.63;;
59189;SDS011;50749;51.636;4.948;2022-12-18T06:18:59;7.03;;;4.30;;
59189;SDS011;50749;51.636;4.948;2022-12-18T06:21:26;6.43;;;4.30;;
59189;SDS011;50749;51.636;4.948;2022-12-18T06:23:52;7.40;;;4.18;;
59189;SDS011;50749;51.636;4.948;2022-12-18T06:26:18;7.85;;;4.15;;
59189;SDS011;50749;51.636;4.948;2022-12-18T06:28:44;7.15;;;4.05;;
59189;SDS011;50749;51.636;4.948;2022-12-18T06:31:10;6.35;;;4.10;;
59189;SDS011;50749;51.636;4.948;2022-12-18T06:33:37;8.85;;;4.78;;
59189;SDS011;50749;51.636;4.948;2022-12-18T06:36:05;8.48;;;4.50;;
59189;SDS011;50749;51.636;4.948;2022-12-18T06:38:33;5.82;;;3.78;;
59189;SDS011;50749;51.636;4.948;2022-12-18T06:41:08;8.32;;;4.53;;
59189;SDS011;50749;51.636;4.948;2022-12-18T06:43:41;7.38;;;4.13;;
59189;SDS011;50749;51.636;4.948;2022-12-18T06:46:07;7.28;;;3.78;;
59189;SDS011;50749;51.636;4.948;2022-12-18T06:48:34;6.15;;;3.95;;
59189;SDS011;50749;51.636;4.948;2022-12-18T06:51:00;5.90;;;3.50;;
59189;SDS011;50749;51.636;4.948;2022-12-18T06:53:26;8.15;;;4.28;;
59189;SDS011;50749;51.636;4.948;2022-12-18T06:55:52;5.95;;;4.15;;
59189;SDS011;50749;51.636;4.948;2022-12-18T06:58:24;6.63;;;3.35;;
59189;SDS011;50749;51.636;4.948;2022-12-18T07:00:50;6.35;;;3.17;;
59189;SDS011;50749;51.636;4.948;2022-12-18T07:03:16;6.93;;;3.55;;
59189;SDS011;50749;51.636;4.948;2022-12-18T07:05:45;7.38;;;3.50;;
59189;SDS011;50749;51.636;4.948;2022-12-18T07:08:11;5.25;;;3.45;;
59189;SDS011;50749;51.636;4.948;2022-12-18T07:10:42;4.78;;;3.30;;
59189;SDS011;50749;51.636;4.948;2022-12-18T07:13:09;5.38;;;3.28;;
59189;SDS011;50749;51.636;4.948;2022-12-18T07:15:35;6.90;;;3.58;;
59189;SDS011;50749;51.636;4.948;2022-12-18T07:18:01;5.97;;;3.40;;
59189;SDS011;50749;51.636;4.948;2022-12-18T07:20:27;5.97;;;3.65;;
59189;SDS011;50749;51.636;4.948;2022-12-18T07:22:54;5.50;;;3.05;;
59189;SDS011;50749;51.636;4.948;2022-12-18T07:25:19;4.60;;;2.72;;
59189;SDS011;50749;51.636;4.948;2022-12-18T07:27:45;5.78;;;3.22;;
59189;SDS011;50749;51.636;4.948;2022-12-18T07:30:11;6.22;;;3.08;;
59189;SDS011;50749;51.636;4.948;2022-12-18T07:32:37;4.80;;;3.08;;
59189;SDS011;50749;51.636;4.948;2022-12-18T07:35:03;6.10;;;3.42;;
59189;SDS011;50749;51.636;4.948;2022-12-18T07:37:29;7.68;;;4.30;;
59189;SDS011;50749;51.636;4.948;2022-12-18T07:39:56;6.38;;;3.90;;
59189;SDS011;50749;51.636;4.948;2022-12-18T07:42:22;6.80;;;3.78;;
59189;SDS011;50749;51.636;4.948;2022-12-18T07:44:57;4.82;;;3.47;;
59189;SDS011;50749;51.636;4.948;2022-12-18T07:47:27;6.07;;;3.65;;
59189;SDS011;50749;51.636;4.948;2022-12-18T07:49:53;6.72;;;3.67;;
59189;SDS011;50749;51.636;4.948;2022-12-18T07:52:19;5.22;;;3.30;;
59189;SDS011;50749;51.636;4.948;2022-12-18T07:54:45;5.32;;;3.30;;
59189;SDS011;50749;51.636;4.948;2022-12-18T07:57:14;6.70;;;2.92;;
59189;SDS011;50749;51.636;4.948;2022-12-18T07:59:41;4.63;;;3.10;;
59189;SDS011;50749;51.636;4.948;2022-12-18T08:02:07;5.03;;;3.15;;
59189;SDS011;50749;51.636;4.948;2022-12-18T08:04:32;5.22;;;3.10;;
59189;SDS011;50749;51.636;4.948;2022-12-18T08:06:58;5.55;;;3.25;;
59189;SDS011;50749;51.636;4.948;2022-12-18T08:09:24;4.55;;;2.75;;
59189;SDS011;50749;51.636;4.948;2022-12-18T08:11:50;4.75;;;2.92;;
59189;SDS011;50749;51.636;4.948;2022-12-18T08:14:15;6.28;;;2.83;;
59189;SDS011;50749;51.636;4.948;2022-12-18T08:16:43;3.97;;;2.60;;
59189;SDS011;50749;51.636;4.948;2022-12-18T08:19:08;5.25;;;2.78;;
59189;SDS011;50749;51.636;4.948;2022-12-18T08:21:34;4.03;;;2.72;;
59189;SDS011;50749;51.636;4.948;2022-12-18T08:24:00;3.90;;;2.20;;
59189;SDS011;50749;51.636;4.948;2022-12-18T08:26:28;3.88;;;2.70;;
59189;SDS011;50749;51.636;4.948;2022-12-18T08:28:56;6.60;;;2.40;;
59189;SDS011;50749;51.636;4.948;2022-12-18T08:31:23;3.10;;;2.22;;
59189;SDS011;50749;51.636;4.948;2022-12-18T08:33:50;5.60;;;3.45;;
59189;SDS011;50749;51.636;4.948;2022-12-18T08:36:19;9.45;;;2.67;;
59189;SDS011;50749;51.636;4.948;2022-12-18T08:38:46;6.55;;;2.78;;
59189;SDS011;50749;51.636;4.948;2022-12-18T08:41:13;6.13;;;2.90;;
59189;SDS011;50749;51.636;4.948;2022-12-18T08:43:40;5.60;;;2.22;;
59189;SDS011;50749;51.636;4.948;2022-12-18T08:46:25;4.38;;;2.65;;
59189;SDS011;50749;51.636;4.948;2022-12-18T08:48:53;4.43;;;2.80;;
59189;SDS011;50749;51.636;4.948;2022-12-18T08:51:22;7.40;;;2.97;;
59189;SDS011;50749;51.636;4.948;2022-12-18T08:53:51;5.03;;;2.92;;
59189;SDS011;50749;51.636;4.948;2022-12-18T08:56:17;5.60;;;2.35;;
59189;SDS011;50749;51.636;4.948;2022-12-18T08:58:42;3.75;;;2.35;;
59189;SDS011;50749;51.636;4.948;2022-12-18T09:01:10;6.50;;;2.63;;
59189;SDS011;50749;51.636;4.948;2022-12-18T09:03:37;5.07;;;2.70;;
59189;SDS011;50749;51.636;4.948;2022-12-18T09:06:03;4.72;;;2.95;;
59189;SDS011;50749;51.636;4.948;2022-12-18T09:08:30;4.57;;;2.75;;
59189;SDS011;50749;51.636;4.948;2022-12-18T09:10:56;5.13;;;2.72;;
59189;SDS011;50749;51.636;4.948;2022-12-18T09:13:22;7.00;;;2.95;;
59189;SDS011;50749;51.636;4.948;2022-12-18T09:15:49;4.70;;;2.53;;
59189;SDS011;50749;51.636;4.948;2022-12-18T09:18:17;4.95;;;3.03;;
59189;SDS011;50749;51.636;4.948;2022-12-18T09:20:44;4.35;;;2.30;;
59189;SDS011;50749;51.636;4.948;2022-12-18T09:23:11;5.88;;;2.42;;
59189;SDS011;50749;51.636;4.948;2022-12-18T09:25:38;6.05;;;2.50;;
59189;SDS011;50749;51.636;4.948;2022-12-18T09:28:11;4.22;;;2.47;;
59189;SDS011;50749;51.636;4.948;2022-12-18T09:33:06;7.55;;;2.75;;
59189;SDS011;50749;51.636;4.948;2022-12-18T09:35:32;4.30;;;2.67;;
59189;SDS011;50749;51.636;4.948;2022-12-18T09:38:04;6.00;;;2.67;;
59189;SDS011;50749;51.636;4.948;2022-12-18T09:40:44;5.53;;;2.92;;
59189;SDS011;50749;51.636;4.948;2022-12-18T09:43:17;10.98;;;2.95;;
59189;SDS011;50749;51.636;4.948;2022-12-18T09:45:47;4.75;;;3.08;;
59189;SDS011;50749;51.636;4.948;2022-12-18T09:48:20;5.70;;;3.20;;
59189;SDS011;50749;51.636;4.948;2022-12-18T09:50:51;4.70;;;2.95;;
59189;SDS011;50749;51.636;4.948;2022-12-18T09:53:22;11.57;;;3.25;;
59189;SDS011;50749;51.636;4.948;2022-12-18T09:55:52;5.75;;;3.20;;
59189;SDS011;50749;51.636;4.948;2022-12-18T10:01:14;12.40;;;2.92;;
59189;SDS011;50749;51.636;4.948;2022-12-18T10:03:43;6.43;;;2.92;;
59189;SDS011;50749;51.636;4.948;2022-12-18T10:06:18;5.10;;;2.85;;
59189;SDS011;50749;51.636;4.948;2022-12-18T10:09:07;9.18;;;2.67;;
59189;SDS011;50749;51.636;4.948;2022-12-18T10:15:05;8.60;;;3.15;;
59189;SDS011;50749;51.636;4.948;2022-12-18T10:20:16;5.10;;;2.72;;
59189;SDS011;50749;51.636;4.948;2022-12-18T10:22:56;8.98;;;3.15;;
59189;SDS011;50749;51.636;4.948;2022-12-18T10:28:11;4.80;;;2.50;;
59189;SDS011;50749;51.636;4.948;2022-12-18T10:30:40;5.32;;;2.92;;
59189;SDS011;50749;51.636;4.948;2022-12-18T10:33:11;4.75;;;2.90;;
59189;SDS011;50749;51.636;4.948;2022-12-18T10:35:41;5.20;;;3.10;;
59189;SDS011;50749;51.636;4.948;2022-12-18T10:40:56;8.82;;;2.92;;
59189;SDS011;50749;51.636;4.948;2022-12-18T10:43:29;3.95;;;2.72;;
59189;SDS011;50749;51.636;4.948;2022-12-18T10:48:36;7.50;;;3.83;;
59189;SDS011;50749;51.636;4.948;2022-12-18T10:51:28;3.60;;;2.47;;
59189;SDS011;50749;51.636;4.948;2022-12-18T10:53:59;4.95;;;2.90;;
59189;SDS011;50749;51.636;4.948;2022-12-18T10:56:28;4.97;;;2.72;;
59189;SDS011;50749;51.636;4.948;2022-12-18T10:59:03;6.05;;;2.95;;
59189;SDS011;50749;51.636;4.948;2022-12-18T11:04:24;5.15;;;3.25;;
59189;SDS011;50749;51.636;4.948;2022-12-18T11:06:54;5.85;;;3.22;;
59189;SDS011;50749;51.636;4.948;2022-12-18T11:09:28;5.20;;;3.45;;
59189;SDS011;50749;51.636;4.948;2022-12-18T11:11:59;6.20;;;3.05;;
59189;SDS011;50749;51.636;4.948;2022-12-18T11:14:35;5.93;;;3.50;;
59189;SDS011;50749;51.636;4.948;2022-12-18T11:17:25;4.57;;;2.33;;
59189;SDS011;50749;51.636;4.948;2022-12-18T11:19:56;5.30;;;2.80;;
59189;SDS011;50749;51.636;4.948;2022-12-18T11:22:29;5.18;;;2.83;;
59189;SDS011;50749;51.636;4.948;2022-12-18T11:24:58;6.20;;;2.70;;
59189;SDS011;50749;51.636;4.948;2022-12-18T11:27:24;5.65;;;3.30;;
59189;SDS011;50749;51.636;4.948;2022-12-18T11:30:06;11.10;;;4.32;;
59189;SDS011;50749;51.636;4.948;2022-12-18T11:32:44;10.00;;;4.30;;
59189;SDS011;50749;51.636;4.948;2022-12-18T11:36:15;9.35;;;3.55;;
59189;SDS011;50749;51.636;4.948;2022-12-18T11:38:32;5.97;;;3.42;;
59189;SDS011;50749;51.636;4.948;2022-12-18T11:41:20;8.77;;;3.40;;
59189;SDS011;50749;51.636;4.948;2022-12-18T11:44:13;12.13;;;3.88;;
59189;SDS011;50749;51.636;4.948;2022-12-18T11:46:49;7.13;;;3.40;;
59189;SDS011;50749;51.636;4.948;2022-12-18T11:49:22;6.35;;;3.10;;
59189;SDS011;50749;51.636;4.948;2022-12-18T11:54:26;12.35;;;3.38;;
59189;SDS011;50749;51.636;4.948;2022-12-18T11:56:54;5.22;;;3.17;;
59189;SDS011;50749;51.636;4.948;2022-12-18T11:59:40;6.68;;;3.53;;
59189;SDS011;50749;51.636;4.948;2022-12-18T12:16:11;8.27;;;2.77;;
59189;SDS011;50749;51.636;4.948;2022-12-18T12:26:52;5.07;;;3.08;;
59189;SDS011;50749;51.636;4.948;2022-12-18T12:37:22;5.95;;;2.70;;
59189;SDS011;50749;51.636;4.948;2022-12-18T12:39:50;5.38;;;2.83;;
59189;SDS011;50749;51.636;4.948;2022-12-18T12:42:24;5.25;;;2.83;;
59189;SDS011;50749;51.636;4.948;2022-12-18T12:45:18;4.68;;;2.63;;
59189;SDS011;50749;51.636;4.948;2022-12-18T12:47:53;5.97;;;3.05;;
59189;SDS011;50749;51.636;4.948;2022-12-18T12:50:23;6.40;;;3.95;;
59189;SDS011;50749;51.636;4.948;2022-12-18T12:52:50;5.63;;;2.75;;
59189;SDS011;50749;51.636;4.948;2022-12-18T12:55:22;9.13;;;3.25;;
59189;SDS011;50749;51.636;4.948;2022-12-18T12:58:07;4.25;;;3.25;;
59189;SDS011;50749;51.636;4.948;2022-12-18T13:03:34;5.03;;;3.08;;
59189;SDS011;50749;51.636;4.948;2022-12-18T13:06:10;9.90;;;3.20;;
59189;SDS011;50749;51.636;4.948;2022-12-18T13:08:57;4.90;;;2.87;;
59189;SDS011;50749;51.636;4.948;2022-12-18T13:11:32;6.22;;;3.50;;
59189;SDS011;50749;51.636;4.948;2022-12-18T13:14:30;6.85;;;2.97;;
59189;SDS011;50749;51.636;4.948;2022-12-18T13:19:50;5.82;;;2.47;;
59189;SDS011;50749;51.636;4.948;2022-12-18T13:22:25;6.28;;;2.63;;
59189;SDS011;50749;51.636;4.948;2022-12-18T13:24:55;5.45;;;2.60;;
59189;SDS011;50749;51.636;4.948;2022-12-18T13:28:07;8.25;;;2.60;;
59189;SDS011;50749;51.636;4.948;2022-12-18T13:35:39;4.07;;;2.38;;
59189;SDS011;50749;51.636;4.948;2022-12-18T13:41:00;11.98;;;2.85;;
59189;SDS011;50749;51.636;4.948;2022-12-18T13:43:28;6.53;;;3.40;;
59189;SDS011;50749;51.636;4.948;2022-12-18T13:49:03;6.22;;;3.30;;
59189;SDS011;50749;51.636;4.948;2022-12-18T13:51:52;5.78;;;3.08;;
59189;SDS011;50749;51.636;4.948;2022-12-18T13:54:36;5.57;;;3.15;;
59189;SDS011;50749;51.636;4.948;2022-12-18T13:57:05;5.80;;;3.10;;
59189;SDS011;50749;51.636;4.948;2022-12-18T13:59:50;5.60;;;3.38;;
59189;SDS011;50749;51.636;4.948;2022-12-18T14:02:17;8.38;;;3.30;;
59189;SDS011;50749;51.636;4.948;2022-12-18T14:04:47;8.38;;;3.20;;
59189;SDS011;50749;51.636;4.948;2022-12-18T14:07:15;5.20;;;2.75;;
59189;SDS011;50749;51.636;4.948;2022-12-18T14:09:46;5.35;;;3.10;;
59189;SDS011;50749;51.636;4.948;2022-12-18T14:12:18;6.53;;;3.28;;
59189;SDS011;50749;51.636;4.948;2022-12-18T14:15:06;4.05;;;3.00;;
59189;SDS011;50749;51.636;4.948;2022-12-18T14:20:56;7.65;;;2.97;;
59189;SDS011;50749;51.636;4.948;2022-12-18T14:26:02;5.07;;;2.83;;
59189;SDS011;50749;51.636;4.948;2022-12-18T14:28:46;5.55;;;2.95;;
59189;SDS011;50749;51.636;4.948;2022-12-18T14:31:26;4.95;;;3.20;;
59189;SDS011;50749;51.636;4.948;2022-12-18T14:33:54;3.85;;;2.40;;
59189;SDS011;50749;51.636;4.948;2022-12-18T14:36:24;5.07;;;2.70;;
59189;SDS011;50749;51.636;4.948;2022-12-18T14:38:55;4.68;;;2.60;;
59189;SDS011;50749;51.636;4.948;2022-12-18T14:41:23;5.35;;;3.00;;
59189;SDS011;50749;51.636;4.948;2022-12-18T14:43:50;4.03;;;2.88;;
59189;SDS011;50749;51.636;4.948;2022-12-18T14:51:31;7.22;;;3.47;;
59189;SDS011;50749;51.636;4.948;2022-12-18T14:54:00;6.65;;;3.13;;
59189;SDS011;50749;51.636;4.948;2022-12-18T14:56:30;5.75;;;2.88;;
59189;SDS011;50749;51.636;4.948;2022-12-18T14:58:59;5.53;;;3.03;;
59189;SDS011;50749;51.636;4.948;2022-12-18T15:03:57;4.85;;;2.58;;
59189;SDS011;50749;51.636;4.948;2022-12-18T15:06:35;4.20;;;2.83;;
59189;SDS011;50749;51.636;4.948;2022-12-18T15:09:03;6.63;;;3.03;;
59189;SDS011;50749;51.636;4.948;2022-12-18T15:11:45;5.72;;;2.97;;
59189;SDS011;50749;51.636;4.948;2022-12-18T15:14:29;5.47;;;3.00;;
59189;SDS011;50749;51.636;4.948;2022-12-18T15:17:14;3.90;;;2.33;;
59189;SDS011;50749;51.636;4.948;2022-12-18T15:19:43;5.30;;;2.90;;
59189;SDS011;50749;51.636;4.948;2022-12-18T15:24:53;7.38;;;2.90;;
59189;SDS011;50749;51.636;4.948;2022-12-18T15:32:41;3.50;;;2.47;;
59189;SDS011;50749;51.636;4.948;2022-12-18T15:37:36;5.13;;;3.00;;
59189;SDS011;50749;51.636;4.948;2022-12-18T15:40:03;5.60;;;3.25;;
59189;SDS011;50749;51.636;4.948;2022-12-18T15:42:30;4.60;;;2.75;;
59189;SDS011;50749;51.636;4.948;2022-12-18T15:45:14;4.57;;;2.60;;
59189;SDS011;50749;51.636;4.948;2022-12-18T15:47:40;4.53;;;2.65;;
59189;SDS011;50749;51.636;4.948;2022-12-18T15:50:09;5.40;;;3.00;;
59189;SDS011;50749;51.636;4.948;2022-12-18T15:52:42;5.95;;;3.25;;
59189;SDS011;50749;51.636;4.948;2022-12-18T15:55:15;5.97;;;3.33;;
59189;SDS011;50749;51.636;4.948;2022-12-18T15:58:08;6.28;;;2.90;;
59189;SDS011;50749;51.636;4.948;2022-12-18T16:00:34;4.75;;;2.88;;
59189;SDS011;50749;51.636;4.948;2022-12-18T16:03:03;5.20;;;3.13;;
59189;SDS011;50749;51.636;4.948;2022-12-18T16:05:30;6.15;;;4.13;;
59189;SDS011;50749;51.636;4.948;2022-12-18T16:07:56;5.38;;;3.08;;
59189;SDS011;50749;51.636;4.948;2022-12-18T16:10:22;5.10;;;3.33;;
59189;SDS011;50749;51.636;4.948;2022-12-18T16:12:49;6.35;;;3.10;;
59189;SDS011;50749;51.636;4.948;2022-12-18T16:15:15;4.82;;;2.83;;
59189;SDS011;50749;51.636;4.948;2022-12-18T16:17:42;4.82;;;3.15;;
59189;SDS011;50749;51.636;4.948;2022-12-18T16:20:12;4.20;;;2.80;;
59189;SDS011;50749;51.636;4.948;2022-12-18T16:22:43;4.75;;;2.80;;
59189;SDS011;50749;51.636;4.948;2022-12-18T16:25:21;5.38;;;3.17;;
59189;SDS011;50749;51.636;4.948;2022-12-18T16:27:50;5.00;;;3.00;;
59189;SDS011;50749;51.636;4.948;2022-12-18T16:30:19;4.10;;;2.42;;
59189;SDS011;50749;51.636;4.948;2022-12-18T16:32:47;4.53;;;2.88;;
59189;SDS011;50749;51.636;4.948;2022-12-18T16:35:13;4.80;;;3.58;;
59189;SDS011;50749;51.636;4.948;2022-12-18T16:37:41;4.57;;;2.95;;
59189;SDS011;50749;51.636;4.948;2022-12-18T16:40:08;5.35;;;3.50;;
59189;SDS011;50749;51.636;4.948;2022-12-18T16:42:36;6.35;;;3.08;;
59189;SDS011;50749;51.636;4.948;2022-12-18T16:45:03;6.20;;;2.97;;
59189;SDS011;50749;51.636;4.948;2022-12-18T16:47:31;5.32;;;3.03;;
59189;SDS011;50749;51.636;4.948;2022-12-18T16:49:57;4.65;;;3.33;;
59189;SDS011;50749;51.636;4.948;2022-12-18T16:52:23;6.65;;;3.67;;
59189;SDS011;50749;51.636;4.948;2022-12-18T16:54:49;5.90;;;3.13;;
59189;SDS011;50749;51.636;4.948;2022-12-18T16:57:16;5.88;;;2.90;;
59189;SDS011;50749;51.636;4.948;2022-12-18T16:59:43;5.45;;;3.13;;
59189;SDS011;50749;51.636;4.948;2022-12-18T17:02:13;5.95;;;3.50;;